Terminal Aerodrome Forecast
Issued by NWS Cheyenne, WY

Home | Current Version | Previous Version | Text Only | Print | Product List | Glossary On
Versions: 1 2 3 4 5 6 7 8 9 10 11 12 13 14 15 16 17 18 19
000
FTUS45 KCYS 250520
TAFCYS
TAF
KCYS 250520Z 2506/2606 20010KT P6SM FEW200
     FM250900 17008KT 5SM BR BKN005 BKN200
     FM251500 19008KT P6SM SCT200
     FM251900 19012KT P6SM VCTS SCT070CB BKN250
     FM260200 19010KT P6SM SCT250=

USA.gov is the U.S. government's official web portal to all federal, state and local government web resources and services.